createdAt,value
2019-02-19T00:00:35.781Z,99013.02
2019-02-19T00:03:04.616Z,99008.66
2019-02-19T00:05:32.995Z,99018.38
2019-02-19T00:08:01.373Z,99007.06
2019-02-19T00:10:30.067Z,99017.64
2019-02-19T00:12:58.491Z,99010.67
2019-02-19T00:15:26.861Z,99019.08
2019-02-19T00:17:55.237Z,99015.61
2019-02-19T00:20:23.601Z,99017.87
2019-02-19T00:22:51.986Z,99015.80
2019-02-19T00:25:20.351Z,99013.66
2019-02-19T00:27:48.729Z,99016.30
2019-02-19T00:30:17.098Z,99009.30
2019-02-19T00:32:45.483Z,99007.12
2019-02-19T00:35:13.869Z,99007.23
2019-02-19T00:37:42.241Z,99008.20
2019-02-19T00:40:10.609Z,99006.42
2019-02-19T00:42:38.987Z,99003.03
2019-02-19T00:45:16.311Z,99003.50
2019-02-19T00:47:38.093Z,99003.14
2019-02-19T00:50:06.797Z,98998.32
2019-02-19T00:52:35.168Z,99002.40
2019-02-19T00:55:03.912Z,98999.75
2019-02-19T00:57:32.288Z,98998.08
2019-02-19T01:00:00.655Z,98997.69
2019-02-19T01:02:29.032Z,98994.19
2019-02-19T01:04:57.402Z,98997.34
2019-02-19T01:07:25.774Z,98994.30
2019-02-19T01:09:54.207Z,98994.80
2019-02-19T01:12:22.584Z,98993.59
2019-02-19T01:14:50.957Z,98993.59
2019-02-19T01:17:19.322Z,98989.70
2019-02-19T01:19:47.695Z,98991.03
2019-02-19T01:22:16.611Z,98987.17
2019-02-19T01:24:44.971Z,98992.96
2019-02-19T01:27:13.334Z,98992.11
2019-02-19T01:29:41.717Z,98988.25
2019-02-19T01:32:10.087Z,98994.86
2019-02-19T01:34:38.460Z,98997.12
2019-02-19T01:37:06.826Z,99001.58
2019-02-19T01:39:35.439Z,99006.48
2019-02-19T01:42:03.804Z,99004.33
2019-02-19T01:44:32.245Z,99002.16
2019-02-19T01:47:00.788Z,99000.95
2019-02-19T01:49:29.159Z,99001.41
2019-02-19T01:51:57.576Z,98999.73
2019-02-19T01:54:25.970Z,99001.52
2019-02-19T01:56:54.335Z,99000.31
2019-02-19T01:59:22.718Z,99000.31
2019-02-19T02:01:51.079Z,99001.25
2019-02-19T02:04:19.460Z,99006.06
2019-02-19T02:06:47.823Z,99004.85
2019-02-19T02:09:16.237Z,99008.93
2019-02-19T02:11:44.622Z,99005.43
2019-02-19T02:14:13.013Z,99004.11
2019-02-19T02:16:41.398Z,99003.75
2019-02-19T02:19:09.789Z,99000.72
2019-02-19T02:21:38.152Z,98999.90
2019-02-19T02:24:06.785Z,99004.33
2019-02-19T02:26:35.117Z,99007.94
2019-02-19T02:29:03.508Z,99009.26
2019-02-19T02:31:31.871Z,99008.41
2019-02-19T02:34:01.196Z,99004.91
2019-02-19T02:36:29.559Z,98998.88
2019-02-19T02:38:57.934Z,98995.30
2019-02-19T02:41:26.315Z,99009.45
2019-02-19T02:43:54.684Z,99004.27
2019-02-19T02:46:23.069Z,99010.05
2019-02-19T02:48:51.438Z,99006.09
2019-02-19T02:51:19.812Z,99004.84
2019-02-19T02:53:48.190Z,99000.88
2019-02-19T02:56:16.571Z,99003.17
2019-02-19T02:58:44.974Z,99010.73
2019-02-19T03:01:13.328Z,99015.63
2019-02-19T03:03:41.699Z,99012.64
2019-02-19T03:06:11.719Z,99020.09
2019-02-19T03:08:40.094Z,99002.53
2019-02-19T03:11:08.467Z,99004.32
2019-02-19T03:13:36.828Z,99005.28
2019-02-19T03:16:05.207Z,99009.25
2019-02-19T03:18:33.589Z,99006.25
2019-02-19T03:21:01.959Z,99012.58
2019-02-19T03:23:30.338Z,99012.58
2019-02-19T03:25:58.725Z,99009.94
2019-02-19T03:28:27.097Z,99011.36
2019-02-19T03:30:55.477Z,99017.50
2019-02-19T03:33:23.863Z,99021.08
2019-02-19T03:35:52.297Z,99018.08
2019-02-19T03:38:20.673Z,99015.90
2019-02-19T03:40:49.060Z,99017.33
2019-02-19T03:43:17.457Z,99022.72
2019-02-19T03:45:45.870Z,99022.72
2019-02-19T03:48:14.252Z,99029.22
2019-02-19T03:50:42.654Z,99029.33
2019-02-19T03:53:12.862Z,99023.19
2019-02-19T03:55:41.275Z,99025.47
2019-02-19T03:58:09.665Z,99030.75
2019-02-19T04:00:38.069Z,99026.90
2019-02-19T04:03:06.465Z,99033.00
2019-02-19T04:05:34.841Z,99040.11
2019-02-19T04:08:03.223Z,99035.39
2019-02-19T04:10:32.068Z,99040.57
2019-02-19T04:13:00.448Z,99043.32
2019-02-19T04:15:28.889Z,99052.92
2019-02-19T04:17:57.264Z,99045.96
2019-02-19T04:20:25.906Z,99052.56
2019-02-19T04:22:54.297Z,99050.78
2019-02-19T04:25:22.668Z,99057.38
2019-02-19T04:27:51.054Z,99056.99
2019-02-19T04:30:19.416Z,99057.95
2019-02-19T04:32:47.789Z,99051.35
2019-02-19T04:35:16.153Z,99062.28
2019-02-19T04:37:44.532Z,99063.13
2019-02-19T04:40:12.899Z,99056.63
2019-02-19T04:42:41.278Z,99060.59
2019-02-19T04:45:09.651Z,99063.13
2019-02-19T04:47:38.037Z,99065.38
2019-02-19T04:50:08.228Z,99063.59
2019-02-19T04:52:36.609Z,99063.59
2019-02-19T04:55:05.813Z,99069.84
2019-02-19T04:57:34.185Z,99074.62
2019-02-19T05:00:02.560Z,99075.48
2019-02-19T05:02:30.927Z,99069.84
2019-02-19T05:04:59.306Z,99071.16
2019-02-19T05:07:27.689Z,99075.48
2019-02-19T05:09:56.061Z,99071.98
2019-02-19T05:12:24.433Z,99073.31
2019-02-19T05:14:52.807Z,99076.05
2019-02-19T05:17:21.191Z,99071.98
2019-02-19T05:19:49.547Z,99075.12
2019-02-19T05:22:17.926Z,99073.80
2019-02-19T05:24:46.297Z,99084.38
2019-02-19T05:27:14.667Z,99085.69
2019-02-19T05:29:43.033Z,99084.38
2019-02-19T05:32:11.415Z,99073.80
2019-02-19T05:34:39.796Z,99074.16
2019-02-19T05:37:08.180Z,99073.31
2019-02-19T05:39:36.558Z,99075.12
2019-02-19T05:42:04.933Z,99080.77
2019-02-19T05:44:33.318Z,99075.48
2019-02-19T05:47:01.688Z,99074.16
2019-02-19T05:49:30.057Z,99081.63
2019-02-19T05:51:58.437Z,99080.77
2019-02-19T05:54:26.829Z,99092.66
2019-02-19T05:56:55.199Z,99098.33
2019-02-19T05:59:23.574Z,99101.90
2019-02-19T06:01:51.970Z,99106.25
2019-02-19T06:04:20.327Z,99110.22
2019-02-19T06:06:48.687Z,99114.18
2019-02-19T06:09:17.074Z,99118.14
2019-02-19T06:11:45.444Z,99119.46
2019-02-19T06:14:13.821Z,99120.17
2019-02-19T06:16:42.190Z,99120.28
2019-02-19T06:19:10.574Z,99124.64
2019-02-19T06:21:38.947Z,99125.95
2019-02-19T06:24:07.338Z,99132.06
2019-02-19T06:26:35.754Z,99131.24
2019-02-19T06:29:04.138Z,99139.53
2019-02-19T06:31:33.311Z,99139.99
2019-02-19T06:34:01.700Z,99130.48
2019-02-19T06:36:30.068Z,99139.53
2019-02-19T06:38:58.447Z,99138.67
2019-02-19T06:41:26.875Z,99139.99
2019-02-19T06:43:55.363Z,99137.84
2019-02-19T06:46:23.743Z,99143.12
2019-02-19T06:48:52.127Z,99151.88
2019-02-19T06:51:20.484Z,99156.34
2019-02-19T06:53:48.876Z,99160.30
2019-02-19T06:56:17.239Z,99170.77
2019-02-19T06:58:45.621Z,99169.44
2019-02-19T07:01:13.992Z,99172.08
2019-02-19T07:03:44.025Z,99176.97
2019-02-19T07:06:12.402Z,99178.22
2019-02-19T07:08:40.778Z,99187.83
2019-02-19T07:11:09.150Z,99186.98
2019-02-19T07:13:37.527Z,99180.37
2019-02-19T07:16:05.908Z,99177.27
2019-02-19T07:18:34.273Z,99176.41
2019-02-19T07:21:03.707Z,99185.19
2019-02-19T07:23:32.074Z,99194.44
2019-02-19T07:26:00.513Z,99196.11
2019-02-19T07:28:28.829Z,99193.11
2019-02-19T07:30:57.207Z,99201.05
2019-02-19T07:33:25.581Z,99198.86
2019-02-19T07:35:53.959Z,99202.00
2019-02-19T07:38:22.342Z,99206.42
2019-02-19T07:40:50.726Z,99206.42
2019-02-19T07:43:19.107Z,99209.06
2019-02-19T07:45:47.492Z,99213.03
2019-02-19T07:48:15.886Z,99215.20
2019-02-19T07:50:44.307Z,99216.60
2019-02-19T07:53:12.646Z,99220.49
2019-02-19T07:55:41.029Z,99222.17
2019-02-19T07:58:09.402Z,99215.67
2019-02-19T08:00:37.778Z,99219.17
2019-02-19T08:03:06.159Z,99225.78
2019-02-19T08:05:34.543Z,99241.63
2019-02-19T08:08:02.928Z,99243.77
2019-02-19T08:10:31.305Z,99237.67
2019-02-19T08:12:59.675Z,99241.13
2019-02-19T08:15:28.064Z,99245.20
2019-02-19T08:17:56.442Z,99255.56
2019-02-19T08:20:24.827Z,99257.84
2019-02-19T08:22:53.209Z,99261.44
2019-02-19T08:25:21.608Z,99260.95
2019-02-19T08:27:51.317Z,99261.05
2019-02-19T08:30:19.963Z,99268.41
2019-02-19T08:32:48.411Z,99267.55
2019-02-19T08:35:16.792Z,99269.37
2019-02-19T08:37:45.179Z,99276.33
2019-02-19T08:40:13.551Z,99280.20
2019-02-19T08:42:41.966Z,99283.40
2019-02-19T08:45:10.881Z,99282.08
2019-02-19T08:47:42.663Z,99283.40
2019-02-19T08:50:09.506Z,99288.59
2019-02-19T08:52:37.931Z,99282.47
2019-02-19T08:55:07.146Z,99287.36
2019-02-19T08:57:35.551Z,99290.77
2019-02-19T09:00:08.252Z,99288.98
2019-02-19T09:02:36.638Z,99294.27
2019-02-19T09:05:06.896Z,99299.45
2019-02-19T09:07:35.276Z,99297.27
2019-02-19T09:10:10.133Z,99300.66
2019-02-19T09:12:38.506Z,99305.84
2019-02-19T09:15:11.111Z,99305.28
2019-02-19T09:17:39.776Z,99308.19
2019-02-19T09:20:09.265Z,99314.13
2019-02-19T09:22:37.733Z,99313.09
2019-02-19T09:25:08.255Z,99303.53
2019-02-19T09:27:36.636Z,99298.98
2019-02-19T09:30:08.082Z,99310.09
2019-02-19T09:32:36.457Z,99304.77
2019-02-19T09:35:06.080Z,99299.28
2019-02-19T09:37:34.897Z,99298.96
2019-02-19T09:40:04.238Z,99294.53
2019-02-19T09:42:32.849Z,99295.56
2019-02-19T09:45:01.239Z,99296.13
2019-02-19T09:47:29.615Z,99296.84
2019-02-19T09:49:58.077Z,99302.70
2019-02-19T09:52:26.503Z,99307.98
2019-02-19T09:54:54.874Z,99303.27
2019-02-19T09:57:23.428Z,99305.05
2019-02-19T09:59:51.867Z,99306.27
2019-02-19T10:02:20.252Z,99307.23
2019-02-19T10:04:48.620Z,99308.09
2019-02-19T10:07:17.099Z,99311.09
2019-02-19T10:09:45.542Z,99312.41
2019-02-19T10:12:13.925Z,99315.42
2019-02-19T10:14:42.372Z,99316.28
2019-02-19T10:17:10.994Z,99312.60
2019-02-19T10:19:39.386Z,99314.64
2019-02-19T10:22:07.769Z,99317.22
2019-02-19T10:24:36.159Z,99303.34
2019-02-19T10:27:05.321Z,99309.98
2019-02-19T10:29:33.705Z,99309.98
2019-02-19T10:32:02.275Z,99315.16
2019-02-19T10:34:30.729Z,99318.39
2019-02-19T10:36:59.114Z,99318.39
2019-02-19T10:39:27.486Z,99316.49
2019-02-19T10:41:55.857Z,99318.06
2019-02-19T10:44:24.229Z,99321.00
2019-02-19T10:46:52.606Z,99323.64
2019-02-19T10:49:20.994Z,99321.82
2019-02-19T10:51:49.378Z,99316.06
2019-02-19T10:54:17.756Z,99318.60
2019-02-19T10:56:46.126Z,99312.84
2019-02-19T10:59:14.506Z,99317.67
2019-02-19T11:01:42.871Z,99317.81
2019-02-19T11:04:11.242Z,99314.09
2019-02-19T11:06:39.635Z,99317.84
2019-02-19T11:09:08.080Z,99315.15
2019-02-19T11:11:36.458Z,99314.27
2019-02-19T11:14:05.604Z,99316.22
2019-02-19T11:16:33.978Z,99312.55
2019-02-19T11:19:02.467Z,99309.84
2019-02-19T11:21:30.847Z,99307.94
2019-02-19T11:23:59.334Z,99308.58
2019-02-19T11:26:27.760Z,99307.14
2019-02-19T11:28:56.257Z,99304.38
2019-02-19T11:31:24.633Z,99298.97
2019-02-19T11:33:53.053Z,99298.72
2019-02-19T11:36:21.429Z,99297.86
2019-02-19T11:38:49.878Z,99301.70
2019-02-19T11:41:18.239Z,99293.59
2019-02-19T11:43:46.686Z,99292.69
2019-02-19T11:46:15.052Z,99299.06
2019-02-19T11:48:43.501Z,99290.38
2019-02-19T11:51:11.873Z,99291.69
2019-02-19T11:53:40.306Z,99293.88
2019-02-19T11:56:08.790Z,99291.69
2019-02-19T11:58:37.169Z,99293.88
2019-02-19T12:01:06.811Z,99295.20
2019-02-19T12:03:36.076Z,99291.69
2019-02-19T12:06:04.452Z,99292.91
2019-02-19T12:08:38.882Z,99289.44
2019-02-19T12:11:02.999Z,99286.67
2019-02-19T12:13:31.361Z,99286.17
2019-02-19T12:15:59.746Z,99282.59
2019-02-19T12:18:28.137Z,99286.06
2019-02-19T12:20:56.508Z,99284.55
2019-02-19T12:23:24.869Z,99281.41
2019-02-19T12:25:53.282Z,99293.70
2019-02-19T12:28:21.604Z,99291.06
2019-02-19T12:30:49.978Z,99295.03
2019-02-19T12:33:18.351Z,99291.41
2019-02-19T12:35:46.725Z,99293.59
2019-02-19T12:38:15.085Z,99293.13
2019-02-19T12:40:43.470Z,99293.95
2019-02-19T12:43:11.833Z,99291.69
2019-02-19T12:45:40.211Z,99289.05
2019-02-19T12:48:08.586Z,99286.39
2019-02-19T12:50:36.959Z,99291.69
2019-02-19T12:53:05.325Z,99290.84
2019-02-19T12:55:33.709Z,99287.83
2019-02-19T12:58:02.076Z,99294.45
2019-02-19T13:00:30.467Z,99298.04
2019-02-19T13:02:58.841Z,99306.38
2019-02-19T13:05:27.223Z,99299.36
2019-02-19T13:07:55.623Z,99289.73
2019-02-19T13:10:24.004Z,99289.63
2019-02-19T13:12:52.379Z,99293.59
2019-02-19T13:15:23.686Z,99298.42
2019-02-19T13:17:52.069Z,99293.02
2019-02-19T13:20:20.517Z,99288.19
2019-02-19T13:22:48.894Z,99294.70
2019-02-19T13:25:17.268Z,99295.28
2019-02-19T13:27:45.644Z,99297.34
2019-02-19T13:30:19.271Z,99292.52
2019-02-19T13:32:47.658Z,99289.87
2019-02-19T13:35:16.034Z,99290.37
2019-02-19T13:37:44.415Z,99288.08
2019-02-19T13:40:15.569Z,99298.20
2019-02-19T13:42:43.953Z,99289.52
2019-02-19T13:45:14.064Z,99292.44
2019-02-19T13:47:42.686Z,99288.93
2019-02-19T13:50:25.638Z,99296.88
2019-02-19T13:52:58.522Z,99296.41
2019-02-19T13:55:28.526Z,99299.88
2019-02-19T13:57:57.574Z,99302.53
2019-02-19T14:00:27.710Z,99302.29
2019-02-19T14:02:56.078Z,99309.66
2019-02-19T14:05:24.452Z,99300.11
2019-02-19T14:07:52.838Z,99299.64
2019-02-19T14:10:21.213Z,99304.55
2019-02-19T14:12:49.591Z,99307.59
2019-02-19T14:15:38.217Z,99317.33
2019-02-19T14:18:08.833Z,99313.81
2019-02-19T14:20:44.606Z,99313.00
2019-02-19T14:23:17.294Z,99314.31
2019-02-19T14:25:56.374Z,99308.16
2019-02-19T14:28:42.909Z,99312.61
2019-02-19T14:31:19.151Z,99306.48
2019-02-19T14:34:05.849Z,99317.55
2019-02-19T14:36:54.183Z,99320.66
2019-02-19T14:39:27.265Z,99313.30
2019-02-19T14:41:57.300Z,99322.20
2019-02-19T14:44:42.598Z,99319.17
2019-02-19T14:47:21.567Z,99320.03
2019-02-19T14:49:57.315Z,99320.99
2019-02-19T14:52:43.501Z,99324.00
2019-02-19T14:55:19.278Z,99324.11
2019-02-19T14:57:58.162Z,99320.14
2019-02-19T15:00:37.265Z,99316.28
2019-02-19T15:03:25.349Z,99319.78
2019-02-19T15:06:11.615Z,99323.86
2019-02-19T15:08:59.474Z,99328.30
2019-02-19T15:11:45.759Z,99324.80
2019-02-19T15:14:15.781Z,99315.64
2019-02-19T15:16:57.479Z,99313.95
2019-02-19T15:19:38.697Z,99316.11
2019-02-19T15:22:20.300Z,99315.75
2019-02-19T15:24:56.051Z,99314.42
2019-02-19T15:27:28.459Z,99318.05
2019-02-19T15:30:01.177Z,99316.33
2019-02-19T15:32:34.104Z,99317.66
2019-02-19T15:35:16.009Z,99324.70
2019-02-19T15:37:46.018Z,99318.98
2019-02-19T15:40:30.852Z,99324.27
2019-02-19T15:43:00.875Z,99322.56
2019-02-19T15:45:47.072Z,99316.41
2019-02-19T15:48:23.263Z,99327.86
2019-02-19T15:50:56.173Z,99332.30
2019-02-19T15:53:29.092Z,99333.73
2019-02-19T15:56:07.580Z,99331.94
2019-02-19T15:58:43.371Z,99332.05
2019-02-19T16:01:22.057Z,99335.27
2019-02-19T16:03:54.697Z,99329.01
2019-02-19T16:06:33.882Z,99339.59
2019-02-19T16:09:20.093Z,99338.28
2019-02-19T16:11:55.814Z,99334.77
2019-02-19T16:14:28.584Z,99337.92
2019-02-19T16:17:01.119Z,99337.53
2019-02-19T16:19:33.534Z,99338.03
2019-02-19T16:22:03.559Z,99339.81
2019-02-19T16:24:36.284Z,99344.65
2019-02-19T16:27:21.045Z,99342.94
2019-02-19T16:29:53.760Z,99342.58
2019-02-19T16:32:35.816Z,99339.92
2019-02-19T16:35:23.150Z,99337.75
2019-02-19T16:37:56.132Z,99339.54
2019-02-19T16:40:26.142Z,99348.91
2019-02-19T16:42:56.158Z,99347.23
2019-02-19T16:45:31.865Z,99348.55
2019-02-19T16:48:01.882Z,99353.85
2019-02-19T16:50:34.765Z,99354.78
2019-02-19T16:53:07.446Z,99357.36
2019-02-19T16:55:39.850Z,99358.68
2019-02-19T16:58:13.294Z,99359.50
2019-02-19T17:00:43.320Z,99362.55
2019-02-19T17:03:13.334Z,99363.02
2019-02-19T17:05:46.304Z,99356.86
2019-02-19T17:08:32.882Z,99362.27
2019-02-19T17:11:05.911Z,99364.55
2019-02-19T17:13:58.057Z,99362.83
2019-02-19T17:16:40.269Z,99371.74
2019-02-19T17:19:10.391Z,99367.87
2019-02-19T17:21:57.046Z,99370.63
2019-02-19T17:24:33.089Z,99368.92
2019-02-19T17:27:06.053Z,99376.03
2019-02-19T17:29:54.608Z,99377.36
2019-02-19T17:32:24.629Z,99378.76
2019-02-19T17:35:00.420Z,99382.37
2019-02-19T17:37:30.513Z,99383.80
2019-02-19T17:40:12.581Z,99386.45
2019-02-19T17:42:42.575Z,99387.02
2019-02-19T17:45:18.547Z,99382.30
2019-02-19T17:47:57.643Z,99386.77
2019-02-19T17:50:38.533Z,99388.09
2019-02-19T17:53:05.511Z,99393.49
2019-02-19T17:55:47.832Z,99399.25
2019-02-19T17:58:29.708Z,99398.78
2019-02-19T18:01:05.666Z,99401.61
2019-02-19T18:03:41.324Z,99406.19
2019-02-19T18:06:17.311Z,99406.19
2019-02-19T18:08:53.256Z,99410.16
2019-02-19T18:11:37.867Z,99405.80
2019-02-19T18:14:26.510Z,99407.97
2019-02-19T18:17:02.949Z,99416.38
2019-02-19T18:19:31.541Z,99422.25
2019-02-19T18:21:59.997Z,99418.38
2019-02-19T18:24:28.373Z,99429.43
2019-02-19T18:26:56.766Z,99430.75
2019-02-19T18:29:25.237Z,99431.25
2019-02-19T18:31:53.679Z,99433.04
2019-02-19T18:34:22.062Z,99433.04
2019-02-19T18:36:50.425Z,99428.21
2019-02-19T18:39:18.805Z,99432.19
2019-02-19T18:41:47.179Z,99430.03
2019-02-19T18:44:15.548Z,99432.68
2019-02-19T18:46:43.910Z,99433.14
2019-02-19T18:49:12.287Z,99433.14
2019-02-19T18:51:40.897Z,99427.85
2019-02-19T18:54:09.698Z,99435.43
2019-02-19T18:56:38.080Z,99426.63
2019-02-19T18:59:06.461Z,99427.95
2019-02-19T19:01:34.831Z,99426.63
2019-02-19T19:04:03.216Z,99423.98
2019-02-19T19:06:31.582Z,99425.31
2019-02-19T19:08:59.968Z,99426.23
2019-02-19T19:11:28.401Z,99428.42
2019-02-19T19:13:56.790Z,99433.25
2019-02-19T19:16:25.158Z,99432.39
2019-02-19T19:18:53.763Z,99432.03
2019-02-19T19:21:22.142Z,99427.20
2019-02-19T19:23:50.508Z,99434.28
2019-02-19T19:26:18.940Z,99434.78
2019-02-19T19:28:47.328Z,99432.23
2019-02-19T19:31:15.693Z,99433.06
2019-02-19T19:33:44.072Z,99432.70
2019-02-19T19:36:12.451Z,99435.45
2019-02-19T19:38:40.827Z,99438.20
2019-02-19T19:41:09.995Z,99441.31
2019-02-19T19:43:38.377Z,99437.91
2019-02-19T19:46:06.740Z,99440.56
2019-02-19T19:48:35.128Z,99443.67
2019-02-19T19:51:03.492Z,99448.96
2019-02-19T19:53:31.868Z,99442.09
2019-02-19T19:56:00.235Z,99450.88
2019-02-19T19:58:28.616Z,99449.17
2019-02-19T20:00:57.036Z,99449.17
2019-02-19T20:03:25.409Z,99456.75
2019-02-19T20:05:53.787Z,99449.73
2019-02-19T20:08:22.172Z,99459.39
2019-02-19T20:10:50.537Z,99450.23
2019-02-19T20:13:18.918Z,99450.34
2019-02-19T20:15:47.297Z,99450.41
2019-02-19T20:18:15.672Z,99450.80
2019-02-19T20:20:44.053Z,99449.58
2019-02-19T20:23:12.432Z,99450.51
2019-02-19T20:25:40.810Z,99449.29
2019-02-19T20:28:09.196Z,99450.61
2019-02-19T20:30:37.574Z,99452.44
2019-02-19T20:33:06.218Z,99457.33
2019-02-19T20:35:34.617Z,99444.20
2019-02-19T20:38:02.994Z,99450.45
2019-02-19T20:40:31.370Z,99460.17
2019-02-19T20:42:59.755Z,99466.40
2019-02-19T20:45:28.214Z,99466.03
2019-02-19T20:47:56.578Z,99468.31
2019-02-19T20:50:24.957Z,99466.59
2019-02-19T20:52:53.340Z,99468.84
2019-02-19T20:55:21.721Z,99472.42
2019-02-19T20:57:50.100Z,99474.24
2019-02-19T21:00:18.856Z,99475.66
2019-02-19T21:02:47.234Z,99479.23
2019-02-19T21:05:15.641Z,99482.28
2019-02-19T21:07:44.040Z,99480.66
2019-02-19T21:10:17.550Z,99485.09
2019-02-19T21:12:45.919Z,99478.98
2019-02-19T21:15:14.450Z,99483.05
2019-02-19T21:17:42.813Z,99485.30
2019-02-19T21:20:12.219Z,99484.93
2019-02-19T21:22:40.895Z,99479.64
2019-02-19T21:25:10.419Z,99481.89
2019-02-19T21:27:38.805Z,99479.74
2019-02-19T21:30:12.983Z,99483.81
2019-02-19T21:32:42.270Z,99479.45
2019-02-19T21:35:11.259Z,99483.05
2019-02-19T21:37:39.644Z,99483.16
2019-02-19T21:40:13.347Z,99480.51
2019-02-19T21:42:41.796Z,99480.97
2019-02-19T21:45:12.806Z,99483.71
2019-02-19T21:47:41.196Z,99479.84
2019-02-19T21:50:10.994Z,99480.31
2019-02-19T21:52:39.651Z,99487.02
2019-02-19T21:55:10.440Z,99490.98
2019-02-19T21:57:38.821Z,99490.63
2019-02-19T22:00:14.772Z,99488.55
2019-02-19T22:02:43.360Z,99489.97
2019-02-19T22:05:11.796Z,99486.46
2019-02-19T22:07:40.182Z,99486.92
2019-02-19T22:10:10.685Z,99489.20
2019-02-19T22:12:39.143Z,99483.63
2019-02-19T22:15:12.290Z,99485.44
2019-02-19T22:17:41.445Z,99485.50
2019-02-19T22:20:33.994Z,99486.46
2019-02-19T22:23:02.452Z,99479.95
2019-02-19T22:25:30.838Z,99480.98
2019-02-19T22:27:59.213Z,99480.61
2019-02-19T22:30:27.587Z,99480.25
2019-02-19T22:32:55.956Z,99481.17
2019-02-19T22:35:24.321Z,99488.34
2019-02-19T22:37:52.697Z,99484.88
2019-02-19T22:40:21.064Z,99491.48
2019-02-19T22:42:49.468Z,99492.05
2019-02-19T22:45:17.838Z,99481.07
2019-02-19T22:47:53.141Z,99488.64
2019-02-19T22:50:16.299Z,99492.50
2019-02-19T22:52:44.708Z,99494.39
2019-02-19T22:55:26.676Z,99496.20
2019-02-19T22:57:55.049Z,99491.37
2019-02-19T23:00:45.913Z,99485.80
2019-02-19T23:03:14.649Z,99492.40
2019-02-19T23:05:43.082Z,99495.23
2019-02-19T23:08:11.701Z,99494.48
2019-02-19T23:10:40.152Z,99496.30
2019-02-19T23:13:08.538Z,99499.40
2019-02-19T23:15:36.905Z,99501.67
2019-02-19T23:18:05.294Z,99502.14
2019-02-19T23:20:33.667Z,99510.53
2019-02-19T23:23:02.043Z,99507.13
2019-02-19T23:25:30.516Z,99513.73
2019-02-19T23:27:58.900Z,99508.94
2019-02-19T23:30:27.265Z,99509.50
2019-02-19T23:32:55.649Z,99518.74
2019-02-19T23:35:25.669Z,99520.16
2019-02-19T23:37:54.045Z,99522.41
2019-02-19T23:40:22.408Z,99521.08
2019-02-19T23:42:50.854Z,99515.53
2019-02-19T23:45:19.252Z,99514.21
2019-02-19T23:47:47.644Z,99516.45
2019-02-19T23:50:16.035Z,99516.55
2019-02-19T23:52:44.403Z,99508.26
2019-02-19T23:55:12.792Z,99519.69
2019-02-19T23:57:42.082Z,99522.02
